sensor_id;sensor_type;location;lat;lon;timestamp;temperature;humidity
4406;DHT22;2216;53.806;11.598;2023-02-04T00:01:23;4.30;82.80
4406;DHT22;2216;53.806;11.598;2023-02-04T00:03:49;4.30;82.80
4406;DHT22;2216;53.806;11.598;2023-02-04T00:06:15;4.50;82.90
4406;DHT22;2216;53.806;11.598;2023-02-04T00:08:40;4.30;82.70
4406;DHT22;2216;53.806;11.598;2023-02-04T00:11:06;4.30;82.80
4406;DHT22;2216;53.806;11.598;2023-02-04T00:13:31;4.30;82.70
4406;DHT22;2216;53.806;11.598;2023-02-04T00:15:57;4.30;82.80
4406;DHT22;2216;53.806;11.598;2023-02-04T00:18:23;4.30;82.70
4406;DHT22;2216;53.806;11.598;2023-02-04T00:20:48;4.30;82.70
4406;DHT22;2216;53.806;11.598;2023-02-04T00:23:14;4.30;82.70
4406;DHT22;2216;53.806;11.598;2023-02-04T00:25:40;4.50;82.80
4406;DHT22;2216;53.806;11.598;2023-02-04T00:28:05;4.40;82.70
4406;DHT22;2216;53.806;11.598;2023-02-04T00:30:31;4.30;82.60
4406;DHT22;2216;53.806;11.598;2023-02-04T00:32:57;4.20;82.60
4406;DHT22;2216;53.806;11.598;2023-02-04T00:35:23;4.20;82.50
4406;DHT22;2216;53.806;11.598;2023-02-04T00:37:49;4.30;82.60
4406;DHT22;2216;53.806;11.598;2023-02-04T00:40:15;4.30;82.60
4406;DHT22;2216;53.806;11.598;2023-02-04T00:42:41;4.20;82.30
4406;DHT22;2216;53.806;11.598;2023-02-04T00:45:09;4.20;82.30
4406;DHT22;2216;53.806;11.598;2023-02-04T00:47:36;4.30;82.60
4406;DHT22;2216;53.806;11.598;2023-02-04T00:50:01;4.30;82.60
4406;DHT22;2216;53.806;11.598;2023-02-04T00:52:27;4.20;82.50
4406;DHT22;2216;53.806;11.598;2023-02-04T00:54:53;4.20;82.40
4406;DHT22;2216;53.806;11.598;2023-02-04T00:57:19;4.20;82.40
4406;DHT22;2216;53.806;11.598;2023-02-04T00:59:44;4.20;82.40
4406;DHT22;2216;53.806;11.598;2023-02-04T01:02:10;4.20;82.30
4406;DHT22;2216;53.806;11.598;2023-02-04T01:04:36;4.20;82.30
4406;DHT22;2216;53.806;11.598;2023-02-04T01:07:01;4.10;82.30
4406;DHT22;2216;53.806;11.598;2023-02-04T01:09:27;4.10;82.20
4406;DHT22;2216;53.806;11.598;2023-02-04T01:11:53;4.10;82.70
4406;DHT22;2216;53.806;11.598;2023-02-04T01:14:19;4.10;82.40
4406;DHT22;2216;53.806;11.598;2023-02-04T01:16:44;4.20;82.10
4406;DHT22;2216;53.806;11.598;2023-02-04T01:19:10;4.20;82.20
4406;DHT22;2216;53.806;11.598;2023-02-04T01:21:36;4.10;82.20
4406;DHT22;2216;53.806;11.598;2023-02-04T01:24:02;4.10;82.20
4406;DHT22;2216;53.806;11.598;2023-02-04T01:26:28;4.10;82.00
4406;DHT22;2216;53.806;11.598;2023-02-04T01:28:54;4.10;82.10
4406;DHT22;2216;53.806;11.598;2023-02-04T01:31:20;4.10;81.90
4406;DHT22;2216;53.806;11.598;2023-02-04T01:33:45;4.00;81.80
4406;DHT22;2216;53.806;11.598;2023-02-04T01:36:11;4.10;82.10
4406;DHT22;2216;53.806;11.598;2023-02-04T01:38:37;4.10;82.20
4406;DHT22;2216;53.806;11.598;2023-02-04T01:41:04;4.00;82.10
4406;DHT22;2216;53.806;11.598;2023-02-04T01:43:30;4.00;82.10
4406;DHT22;2216;53.806;11.598;2023-02-04T01:45:56;4.00;82.30
4406;DHT22;2216;53.806;11.598;2023-02-04T01:48:23;4.00;82.20
4406;DHT22;2216;53.806;11.598;2023-02-04T01:50:52;4.00;81.90
4406;DHT22;2216;53.806;11.598;2023-02-04T01:53:21;4.00;82.00
4406;DHT22;2216;53.806;11.598;2023-02-04T01:55:49;4.00;82.10
4406;DHT22;2216;53.806;11.598;2023-02-04T01:58:15;4.00;82.20
4406;DHT22;2216;53.806;11.598;2023-02-04T02:00:41;4.00;82.10
4406;DHT22;2216;53.806;11.598;2023-02-04T02:03:08;4.00;82.00
4406;DHT22;2216;53.806;11.598;2023-02-04T02:05:45;4.00;82.10
4406;DHT22;2216;53.806;11.598;2023-02-04T02:08:13;4.00;82.30
4406;DHT22;2216;53.806;11.598;2023-02-04T02:10:43;4.00;82.00
4406;DHT22;2216;53.806;11.598;2023-02-04T02:13:14;4.00;81.90
4406;DHT22;2216;53.806;11.598;2023-02-04T02:15:41;3.90;82.00
4406;DHT22;2216;53.806;11.598;2023-02-04T02:18:08;3.90;82.00
4406;DHT22;2216;53.806;11.598;2023-02-04T02:20:34;3.90;82.10
4406;DHT22;2216;53.806;11.598;2023-02-04T02:25:48;3.90;82.10
4406;DHT22;2216;53.806;11.598;2023-02-04T02:28:17;3.90;82.10
4406;DHT22;2216;53.806;11.598;2023-02-04T02:30:45;3.90;82.20
4406;DHT22;2216;53.806;11.598;2023-02-04T02:33:16;3.90;82.20
4406;DHT22;2216;53.806;11.598;2023-02-04T02:35:44;3.90;82.10
4406;DHT22;2216;53.806;11.598;2023-02-04T02:38:13;3.80;82.00
4406;DHT22;2216;53.806;11.598;2023-02-04T02:40:42;3.80;82.10
4406;DHT22;2216;53.806;11.598;2023-02-04T02:43:13;3.80;82.10
4406;DHT22;2216;53.806;11.598;2023-02-04T02:45:42;3.80;81.90
4406;DHT22;2216;53.806;11.598;2023-02-04T02:48:08;3.80;82.00
4406;DHT22;2216;53.806;11.598;2023-02-04T02:50:35;3.80;81.90
4406;DHT22;2216;53.806;11.598;2023-02-04T02:53:01;3.80;82.00
4406;DHT22;2216;53.806;11.598;2023-02-04T02:55:28;3.70;82.00
4406;DHT22;2216;53.806;11.598;2023-02-04T02:57:55;3.70;82.00
4406;DHT22;2216;53.806;11.598;2023-02-04T03:00:24;3.80;82.20
4406;DHT22;2216;53.806;11.598;2023-02-04T03:03:07;3.80;82.20
4406;DHT22;2216;53.806;11.598;2023-02-04T03:05:39;3.70;82.10
4406;DHT22;2216;53.806;11.598;2023-02-04T03:08:06;3.70;82.10
4406;DHT22;2216;53.806;11.598;2023-02-04T03:10:33;3.70;82.20
4406;DHT22;2216;53.806;11.598;2023-02-04T03:12:59;3.70;82.10
4406;DHT22;2216;53.806;11.598;2023-02-04T03:15:25;3.70;82.10
4406;DHT22;2216;53.806;11.598;2023-02-04T03:17:51;3.70;82.10
4406;DHT22;2216;53.806;11.598;2023-02-04T03:20:23;3.70;82.00
4406;DHT22;2216;53.806;11.598;2023-02-04T03:22:50;3.60;81.90
4406;DHT22;2216;53.806;11.598;2023-02-04T03:25:16;3.60;81.70
4406;DHT22;2216;53.806;11.598;2023-02-04T03:27:42;3.50;81.70
4406;DHT22;2216;53.806;11.598;2023-02-04T03:30:08;3.50;81.70
4406;DHT22;2216;53.806;11.598;2023-02-04T03:32:34;3.50;81.70
4406;DHT22;2216;53.806;11.598;2023-02-04T03:35:00;3.50;81.70
4406;DHT22;2216;53.806;11.598;2023-02-04T03:37:26;3.40;81.60
4406;DHT22;2216;53.806;11.598;2023-02-04T03:39:51;3.40;81.70
4406;DHT22;2216;53.806;11.598;2023-02-04T03:42:17;3.30;81.60
4406;DHT22;2216;53.806;11.598;2023-02-04T03:44:43;3.30;81.60
4406;DHT22;2216;53.806;11.598;2023-02-04T03:47:08;3.30;81.60
4406;DHT22;2216;53.806;11.598;2023-02-04T03:49:34;3.20;81.60
4406;DHT22;2216;53.806;11.598;2023-02-04T03:52:01;3.20;81.60
4406;DHT22;2216;53.806;11.598;2023-02-04T03:54:27;3.20;81.60
4406;DHT22;2216;53.806;11.598;2023-02-04T03:56:53;3.20;81.50
4406;DHT22;2216;53.806;11.598;2023-02-04T03:59:19;3.10;81.50
4406;DHT22;2216;53.806;11.598;2023-02-04T04:01:44;3.00;81.40
4406;DHT22;2216;53.806;11.598;2023-02-04T04:04:10;3.00;81.40
4406;DHT22;2216;53.806;11.598;2023-02-04T04:06:36;2.90;81.40
4406;DHT22;2216;53.806;11.598;2023-02-04T04:09:02;2.90;81.50
4406;DHT22;2216;53.806;11.598;2023-02-04T04:11:29;2.90;81.60
4406;DHT22;2216;53.806;11.598;2023-02-04T04:13:55;2.90;81.70
4406;DHT22;2216;53.806;11.598;2023-02-04T04:16:20;2.80;81.70
4406;DHT22;2216;53.806;11.598;2023-02-04T04:18:46;2.80;81.80
4406;DHT22;2216;53.806;11.598;2023-02-04T04:21:12;3.00;82.00
4406;DHT22;2216;53.806;11.598;2023-02-04T04:23:38;2.80;81.90
4406;DHT22;2216;53.806;11.598;2023-02-04T04:26:03;2.80;81.90
4406;DHT22;2216;53.806;11.598;2023-02-04T04:28:29;2.80;82.00
4406;DHT22;2216;53.806;11.598;2023-02-04T04:30:55;2.90;82.10
4406;DHT22;2216;53.806;11.598;2023-02-04T04:33:22;2.90;82.10
4406;DHT22;2216;53.806;11.598;2023-02-04T04:35:47;2.90;82.90
4406;DHT22;2216;53.806;11.598;2023-02-04T04:38:13;2.90;82.20
4406;DHT22;2216;53.806;11.598;2023-02-04T04:40:39;3.00;82.20
4406;DHT22;2216;53.806;11.598;2023-02-04T04:43:04;2.90;82.20
4406;DHT22;2216;53.806;11.598;2023-02-04T04:45:30;2.90;82.20
4406;DHT22;2216;53.806;11.598;2023-02-04T04:47:56;2.90;82.20
4406;DHT22;2216;53.806;11.598;2023-02-04T04:50:21;2.90;82.20
4406;DHT22;2216;53.806;11.598;2023-02-04T04:52:47;2.90;82.10
4406;DHT22;2216;53.806;11.598;2023-02-04T04:55:13;2.90;82.20
4406;DHT22;2216;53.806;11.598;2023-02-04T04:57:39;2.90;82.10
4406;DHT22;2216;53.806;11.598;2023-02-04T05:00:06;2.90;82.10
4406;DHT22;2216;53.806;11.598;2023-02-04T05:02:32;3.10;82.30
4406;DHT22;2216;53.806;11.598;2023-02-04T05:04:58;2.90;82.10
4406;DHT22;2216;53.806;11.598;2023-02-04T05:07:23;2.90;82.00
4406;DHT22;2216;53.806;11.598;2023-02-04T05:09:49;2.80;81.90
4406;DHT22;2216;53.806;11.598;2023-02-04T05:12:15;2.90;82.00
4406;DHT22;2216;53.806;11.598;2023-02-04T05:14:40;2.90;81.90
4406;DHT22;2216;53.806;11.598;2023-02-04T05:17:06;2.90;81.90
4406;DHT22;2216;53.806;11.598;2023-02-04T05:19:32;2.80;81.80
4406;DHT22;2216;53.806;11.598;2023-02-04T05:21:57;2.80;81.90
4406;DHT22;2216;53.806;11.598;2023-02-04T05:24:26;2.80;81.80
4406;DHT22;2216;53.806;11.598;2023-02-04T05:26:52;2.90;81.90
4406;DHT22;2216;53.806;11.598;2023-02-04T05:29:17;2.80;81.80
4406;DHT22;2216;53.806;11.598;2023-02-04T05:31:43;3.00;82.00
4406;DHT22;2216;53.806;11.598;2023-02-04T05:34:09;2.70;81.80
4406;DHT22;2216;53.806;11.598;2023-02-04T05:36:34;2.70;81.80
4406;DHT22;2216;53.806;11.598;2023-02-04T05:39:00;2.70;81.80
4406;DHT22;2216;53.806;11.598;2023-02-04T05:41:26;2.70;81.70
4406;DHT22;2216;53.806;11.598;2023-02-04T05:43:51;2.60;81.70
4406;DHT22;2216;53.806;11.598;2023-02-04T05:46:17;2.60;81.70
4406;DHT22;2216;53.806;11.598;2023-02-04T05:48:43;2.60;81.60
4406;DHT22;2216;53.806;11.598;2023-02-04T05:51:08;2.60;81.60
4406;DHT22;2216;53.806;11.598;2023-02-04T05:53:34;2.50;81.50
4406;DHT22;2216;53.806;11.598;2023-02-04T05:56:00;2.50;81.50
4406;DHT22;2216;53.806;11.598;2023-02-04T05:58:26;2.40;81.40
4406;DHT22;2216;53.806;11.598;2023-02-04T06:01:00;2.40;81.50
4406;DHT22;2216;53.806;11.598;2023-02-04T06:03:28;2.40;81.50
4406;DHT22;2216;53.806;11.598;2023-02-04T06:05:54;2.40;81.50
4406;DHT22;2216;53.806;11.598;2023-02-04T06:08:19;2.30;81.40
4406;DHT22;2216;53.806;11.598;2023-02-04T06:10:45;2.30;81.40
4406;DHT22;2216;53.806;11.598;2023-02-04T06:13:11;2.50;81.40
4406;DHT22;2216;53.806;11.598;2023-02-04T06:15:36;2.20;81.20
4406;DHT22;2216;53.806;11.598;2023-02-04T06:18:02;2.20;81.20
4406;DHT22;2216;53.806;11.598;2023-02-04T06:20:28;2.10;81.20
4406;DHT22;2216;53.806;11.598;2023-02-04T06:22:53;2.10;81.10
4406;DHT22;2216;53.806;11.598;2023-02-04T06:25:23;2.00;81.10
4406;DHT22;2216;53.806;11.598;2023-02-04T06:27:49;1.90;81.00
4406;DHT22;2216;53.806;11.598;2023-02-04T06:30:16;1.80;81.00
4406;DHT22;2216;53.806;11.598;2023-02-04T06:32:42;1.80;81.00
4406;DHT22;2216;53.806;11.598;2023-02-04T06:35:09;1.80;81.00
4406;DHT22;2216;53.806;11.598;2023-02-04T06:37:37;1.70;81.00
4406;DHT22;2216;53.806;11.598;2023-02-04T06:40:04;1.70;81.00
4406;DHT22;2216;53.806;11.598;2023-02-04T06:42:30;1.60;81.00
4406;DHT22;2216;53.806;11.598;2023-02-04T06:44:56;1.50;81.00
4406;DHT22;2216;53.806;11.598;2023-02-04T06:47:21;1.50;81.00
4406;DHT22;2216;53.806;11.598;2023-02-04T06:49:47;1.50;81.10
4406;DHT22;2216;53.806;11.598;2023-02-04T06:52:13;1.40;81.10
4406;DHT22;2216;53.806;11.598;2023-02-04T06:54:38;1.40;81.20
4406;DHT22;2216;53.806;11.598;2023-02-04T06:57:04;1.40;81.20
4406;DHT22;2216;53.806;11.598;2023-02-04T06:59:37;1.40;81.30
4406;DHT22;2216;53.806;11.598;2023-02-04T07:02:05;1.30;81.40
4406;DHT22;2216;53.806;11.598;2023-02-04T07:04:31;1.30;81.40
4406;DHT22;2216;53.806;11.598;2023-02-04T07:06:57;1.30;81.40
4406;DHT22;2216;53.806;11.598;2023-02-04T07:09:23;1.30;81.50
4406;DHT22;2216;53.806;11.598;2023-02-04T07:11:49;1.30;81.60
4406;DHT22;2216;53.806;11.598;2023-02-04T07:14:15;1.30;81.60
4406;DHT22;2216;53.806;11.598;2023-02-04T07:16:41;1.30;81.70
4406;DHT22;2216;53.806;11.598;2023-02-04T07:19:06;1.30;81.60
4406;DHT22;2216;53.806;11.598;2023-02-04T07:21:32;1.50;81.90
4406;DHT22;2216;53.806;11.598;2023-02-04T07:23:57;1.30;81.70
4406;DHT22;2216;53.806;11.598;2023-02-04T07:26:23;1.30;81.70
4406;DHT22;2216;53.806;11.598;2023-02-04T07:28:49;1.40;81.80
4406;DHT22;2216;53.806;11.598;2023-02-04T07:31:14;1.30;81.80
4406;DHT22;2216;53.806;11.598;2023-02-04T07:33:40;1.30;81.80
4406;DHT22;2216;53.806;11.598;2023-02-04T07:36:06;1.30;81.80
4406;DHT22;2216;53.806;11.598;2023-02-04T07:38:32;1.30;81.80
4406;DHT22;2216;53.806;11.598;2023-02-04T07:40:58;1.30;81.80
4406;DHT22;2216;53.806;11.598;2023-02-04T07:43:23;1.30;81.80
4406;DHT22;2216;53.806;11.598;2023-02-04T07:45:49;1.30;81.80
4406;DHT22;2216;53.806;11.598;2023-02-04T07:48:15;1.30;81.80
4406;DHT22;2216;53.806;11.598;2023-02-04T07:50:40;1.30;81.90
4406;DHT22;2216;53.806;11.598;2023-02-04T07:53:06;1.30;81.90
4406;DHT22;2216;53.806;11.598;2023-02-04T07:55:32;1.30;81.90
4406;DHT22;2216;53.806;11.598;2023-02-04T07:57:58;1.30;81.90
4406;DHT22;2216;53.806;11.598;2023-02-04T08:00:24;1.40;82.10
4406;DHT22;2216;53.806;11.598;2023-02-04T08:02:50;1.40;82.10
4406;DHT22;2216;53.806;11.598;2023-02-04T08:05:15;1.40;82.10
4406;DHT22;2216;53.806;11.598;2023-02-04T08:07:41;1.40;82.10
4406;DHT22;2216;53.806;11.598;2023-02-04T08:10:08;1.40;82.10
4406;DHT22;2216;53.806;11.598;2023-02-04T08:12:35;1.50;82.20
4406;DHT22;2216;53.806;11.598;2023-02-04T08:15:01;1.60;82.30
4406;DHT22;2216;53.806;11.598;2023-02-04T08:17:27;1.50;82.30
4406;DHT22;2216;53.806;11.598;2023-02-04T08:19:53;1.50;82.30
4406;DHT22;2216;53.806;11.598;2023-02-04T08:22:19;1.60;82.40
4406;DHT22;2216;53.806;11.598;2023-02-04T08:24:44;1.60;82.40
4406;DHT22;2216;53.806;11.598;2023-02-04T08:27:10;1.60;82.40
4406;DHT22;2216;53.806;11.598;2023-02-04T08:29:36;1.60;82.50
4406;DHT22;2216;53.806;11.598;2023-02-04T08:32:02;1.80;82.60
4406;DHT22;2216;53.806;11.598;2023-02-04T08:34:29;1.70;82.60
4406;DHT22;2216;53.806;11.598;2023-02-04T08:36:55;1.80;82.70
4406;DHT22;2216;53.806;11.598;2023-02-04T08:39:20;1.90;82.80
4406;DHT22;2216;53.806;11.598;2023-02-04T08:41:46;1.90;82.90
4406;DHT22;2216;53.806;11.598;2023-02-04T08:44:14;2.00;83.00
4406;DHT22;2216;53.806;11.598;2023-02-04T08:46:39;2.10;83.00
4406;DHT22;2216;53.806;11.598;2023-02-04T08:49:05;2.20;83.20
4406;DHT22;2216;53.806;11.598;2023-02-04T08:51:31;2.30;83.20
4406;DHT22;2216;53.806;11.598;2023-02-04T08:53:56;2.30;83.20
4406;DHT22;2216;53.806;11.598;2023-02-04T08:56:23;2.40;83.30
4406;DHT22;2216;53.806;11.598;2023-02-04T08:58:48;2.50;83.30
4406;DHT22;2216;53.806;11.598;2023-02-04T09:01:14;2.60;83.30
4406;DHT22;2216;53.806;11.598;2023-02-04T09:03:40;2.60;83.30
4406;DHT22;2216;53.806;11.598;2023-02-04T09:06:06;2.70;83.30
4406;DHT22;2216;53.806;11.598;2023-02-04T09:08:32;2.80;83.30
4406;DHT22;2216;53.806;11.598;2023-02-04T09:10:58;2.90;83.30
4406;DHT22;2216;53.806;11.598;2023-02-04T09:13:24;3.00;83.30
4406;DHT22;2216;53.806;11.598;2023-02-04T09:15:50;3.00;83.20
4406;DHT22;2216;53.806;11.598;2023-02-04T09:18:17;3.10;83.20
4406;DHT22;2216;53.806;11.598;2023-02-04T09:20:49;3.20;83.20
4406;DHT22;2216;53.806;11.598;2023-02-04T09:23:16;3.30;83.30
4406;DHT22;2216;53.806;11.598;2023-02-04T09:25:43;3.40;83.30
4406;DHT22;2216;53.806;11.598;2023-02-04T09:28:10;3.40;83.30
4406;DHT22;2216;53.806;11.598;2023-02-04T09:30:38;3.50;83.40
4406;DHT22;2216;53.806;11.598;2023-02-04T09:33:04;3.60;83.30
4406;DHT22;2216;53.806;11.598;2023-02-04T09:35:30;3.70;83.30
4406;DHT22;2216;53.806;11.598;2023-02-04T09:37:56;3.80;83.30
4406;DHT22;2216;53.806;11.598;2023-02-04T09:40:21;3.90;83.30
4406;DHT22;2216;53.806;11.598;2023-02-04T09:42:49;3.90;82.90
4406;DHT22;2216;53.806;11.598;2023-02-04T09:45:18;4.00;82.90
4406;DHT22;2216;53.806;11.598;2023-02-04T09:47:46;4.10;83.30
4406;DHT22;2216;53.806;11.598;2023-02-04T09:50:14;4.10;82.60
4406;DHT22;2216;53.806;11.598;2023-02-04T09:52:42;4.10;82.20
4406;DHT22;2216;53.806;11.598;2023-02-04T09:55:15;4.10;82.10
4406;DHT22;2216;53.806;11.598;2023-02-04T09:57:42;4.20;82.40
4406;DHT22;2216;53.806;11.598;2023-02-04T10:00:20;4.30;82.50
4406;DHT22;2216;53.806;11.598;2023-02-04T10:02:48;4.30;82.70
4406;DHT22;2216;53.806;11.598;2023-02-04T10:05:19;4.40;83.00
4406;DHT22;2216;53.806;11.598;2023-02-04T10:07:49;4.50;83.90
4406;DHT22;2216;53.806;11.598;2023-02-04T10:10:16;4.70;83.30
4406;DHT22;2216;53.806;11.598;2023-02-04T10:12:45;4.60;83.00
4406;DHT22;2216;53.806;11.598;2023-02-04T10:15:15;4.70;83.00
4406;DHT22;2216;53.806;11.598;2023-02-04T10:17:45;4.80;82.20
4406;DHT22;2216;53.806;11.598;2023-02-04T10:20:21;4.90;82.60
4406;DHT22;2216;53.806;11.598;2023-02-04T10:22:50;5.00;82.50
4406;DHT22;2216;53.806;11.598;2023-02-04T10:25:20;5.00;81.20
4406;DHT22;2216;53.806;11.598;2023-02-04T10:27:51;5.10;81.40
4406;DHT22;2216;53.806;11.598;2023-02-04T10:30:40;5.20;81.70
4406;DHT22;2216;53.806;11.598;2023-02-04T10:33:22;5.20;81.90
4406;DHT22;2216;53.806;11.598;2023-02-04T10:35:53;5.30;83.00
4406;DHT22;2216;53.806;11.598;2023-02-04T10:38:21;5.40;82.00
4406;DHT22;2216;53.806;11.598;2023-02-04T10:40:47;5.40;81.90
4406;DHT22;2216;53.806;11.598;2023-02-04T10:43:16;5.40;82.00
4406;DHT22;2216;53.806;11.598;2023-02-04T10:45:45;5.40;82.00
4406;DHT22;2216;53.806;11.598;2023-02-04T10:48:17;5.40;81.60
4406;DHT22;2216;53.806;11.598;2023-02-04T10:50:45;5.40;81.50
4406;DHT22;2216;53.806;11.598;2023-02-04T10:53:15;5.40;80.80
4406;DHT22;2216;53.806;11.598;2023-02-04T10:56:05;5.30;81.10
4406;DHT22;2216;53.806;11.598;2023-02-04T10:58:35;5.30;81.30
4406;DHT22;2216;53.806;11.598;2023-02-04T11:01:01;5.40;81.70
4406;DHT22;2216;53.806;11.598;2023-02-04T11:03:28;5.40;81.40
4406;DHT22;2216;53.806;11.598;2023-02-04T11:05:59;5.50;81.40
4406;DHT22;2216;53.806;11.598;2023-02-04T11:08:32;5.40;81.00
4406;DHT22;2216;53.806;11.598;2023-02-04T11:11:06;5.40;79.40
4406;DHT22;2216;53.806;11.598;2023-02-04T11:16:27;5.30;79.90
4406;DHT22;2216;53.806;11.598;2023-02-04T11:19:00;5.30;79.90
4406;DHT22;2216;53.806;11.598;2023-02-04T11:26:40;5.30;79.80
4406;DHT22;2216;53.806;11.598;2023-02-04T11:29:36;5.30;79.70
4406;DHT22;2216;53.806;11.598;2023-02-04T11:37:38;5.40;79.70
4406;DHT22;2216;53.806;11.598;2023-02-04T11:40:29;5.40;79.90
4406;DHT22;2216;53.806;11.598;2023-02-04T11:43:10;5.40;80.50
4406;DHT22;2216;53.806;11.598;2023-02-04T11:45:39;5.40;80.90
4406;DHT22;2216;53.806;11.598;2023-02-04T11:48:17;5.50;81.30
4406;DHT22;2216;53.806;11.598;2023-02-04T11:50:54;5.60;80.90
4406;DHT22;2216;53.806;11.598;2023-02-04T11:53:23;5.70;80.80
4406;DHT22;2216;53.806;11.598;2023-02-04T11:55:53;5.70;79.50
4406;DHT22;2216;53.806;11.598;2023-02-04T11:58:19;5.80;80.70
4406;DHT22;2216;53.806;11.598;2023-02-04T12:00:46;5.80;79.30
4406;DHT22;2216;53.806;11.598;2023-02-04T12:03:29;5.90;80.30
4406;DHT22;2216;53.806;11.598;2023-02-04T12:05:58;5.90;79.10
4406;DHT22;2216;53.806;11.598;2023-02-04T12:08:34;6.00;80.00
4406;DHT22;2216;53.806;11.598;2023-02-04T12:11:22;6.00;80.40
4406;DHT22;2216;53.806;11.598;2023-02-04T12:13:55;6.10;80.40
4406;DHT22;2216;53.806;11.598;2023-02-04T12:16:23;6.20;80.50
4406;DHT22;2216;53.806;11.598;2023-02-04T12:18:50;6.20;81.00
4406;DHT22;2216;53.806;11.598;2023-02-04T12:21:17;6.20;80.30
4406;DHT22;2216;53.806;11.598;2023-02-04T12:23:45;6.20;80.50
4406;DHT22;2216;53.806;11.598;2023-02-04T12:26:11;6.20;79.30
4406;DHT22;2216;53.806;11.598;2023-02-04T12:28:37;6.10;78.70
4406;DHT22;2216;53.806;11.598;2023-02-04T12:31:03;6.00;78.10
4406;DHT22;2216;53.806;11.598;2023-02-04T12:33:29;6.00;78.90
4406;DHT22;2216;53.806;11.598;2023-02-04T12:35:54;5.90;78.40
4406;DHT22;2216;53.806;11.598;2023-02-04T12:38:20;5.80;78.20
4406;DHT22;2216;53.806;11.598;2023-02-04T12:40:46;5.70;78.70
4406;DHT22;2216;53.806;11.598;2023-02-04T12:43:11;5.90;79.40
4406;DHT22;2216;53.806;11.598;2023-02-04T12:45:37;5.70;79.50
4406;DHT22;2216;53.806;11.598;2023-02-04T12:48:04;5.70;80.20
4406;DHT22;2216;53.806;11.598;2023-02-04T12:50:30;5.70;80.00
4406;DHT22;2216;53.806;11.598;2023-02-04T12:52:58;5.70;79.70
4406;DHT22;2216;53.806;11.598;2023-02-04T12:55:26;5.70;78.00
4406;DHT22;2216;53.806;11.598;2023-02-04T12:57:52;5.80;79.40
4406;DHT22;2216;53.806;11.598;2023-02-04T13:00:19;5.70;77.40
4406;DHT22;2216;53.806;11.598;2023-02-04T13:02:45;5.60;77.90
4406;DHT22;2216;53.806;11.598;2023-02-04T13:05:12;5.50;77.90
4406;DHT22;2216;53.806;11.598;2023-02-04T13:07:38;5.50;78.10
4406;DHT22;2216;53.806;11.598;2023-02-04T13:10:06;5.40;78.60
4406;DHT22;2216;53.806;11.598;2023-02-04T13:12:32;5.30;78.80
4406;DHT22;2216;53.806;11.598;2023-02-04T13:14:58;5.30;79.30
4406;DHT22;2216;53.806;11.598;2023-02-04T13:17:24;5.40;79.30
4406;DHT22;2216;53.806;11.598;2023-02-04T13:19:49;5.40;79.90
4406;DHT22;2216;53.806;11.598;2023-02-04T13:22:15;5.40;79.40
4406;DHT22;2216;53.806;11.598;2023-02-04T13:24:41;5.50;80.00
4406;DHT22;2216;53.806;11.598;2023-02-04T13:27:07;5.50;79.00
4406;DHT22;2216;53.806;11.598;2023-02-04T13:29:33;5.50;77.80
4406;DHT22;2216;53.806;11.598;2023-02-04T13:31:58;5.50;78.80
4406;DHT22;2216;53.806;11.598;2023-02-04T13:34:24;5.40;78.80
4406;DHT22;2216;53.806;11.598;2023-02-04T13:36:50;5.30;78.20
4406;DHT22;2216;53.806;11.598;2023-02-04T13:39:15;5.30;77.90
4406;DHT22;2216;53.806;11.598;2023-02-04T13:41:41;5.20;78.20
4406;DHT22;2216;53.806;11.598;2023-02-04T13:44:07;5.10;78.00
4406;DHT22;2216;53.806;11.598;2023-02-04T13:46:33;5.00;78.40
4406;DHT22;2216;53.806;11.598;2023-02-04T13:48:59;5.00;78.80
4406;DHT22;2216;53.806;11.598;2023-02-04T13:51:24;5.00;78.60
4406;DHT22;2216;53.806;11.598;2023-02-04T13:53:50;5.00;78.20
4406;DHT22;2216;53.806;11.598;2023-02-04T13:56:16;5.00;78.00
4406;DHT22;2216;53.806;11.598;2023-02-04T13:58:42;4.90;78.10
4406;DHT22;2216;53.806;11.598;2023-02-04T14:01:10;4.90;78.40
4406;DHT22;2216;53.806;11.598;2023-02-04T14:03:36;4.90;78.40
4406;DHT22;2216;53.806;11.598;2023-02-04T14:06:03;4.90;78.70
4406;DHT22;2216;53.806;11.598;2023-02-04T14:08:28;4.80;78.20
4406;DHT22;2216;53.806;11.598;2023-02-04T14:10:54;4.80;77.20
4406;DHT22;2216;53.806;11.598;2023-02-04T14:13:20;5.00;78.20
4406;DHT22;2216;53.806;11.598;2023-02-04T14:15:45;4.70;78.60
4406;DHT22;2216;53.806;11.598;2023-02-04T14:18:11;4.70;78.30
4406;DHT22;2216;53.806;11.598;2023-02-04T14:20:37;4.60;78.30
4406;DHT22;2216;53.806;11.598;2023-02-04T14:23:04;4.60;77.00
4406;DHT22;2216;53.806;11.598;2023-02-04T14:25:30;4.60;77.30
4406;DHT22;2216;53.806;11.598;2023-02-04T14:27:56;4.50;77.60
4406;DHT22;2216;53.806;11.598;2023-02-04T14:30:24;4.50;78.30
4406;DHT22;2216;53.806;11.598;2023-02-04T14:32:51;4.40;77.60
4406;DHT22;2216;53.806;11.598;2023-02-04T14:35:17;4.40;77.30
4406;DHT22;2216;53.806;11.598;2023-02-04T14:37:43;4.30;77.70
4406;DHT22;2216;53.806;11.598;2023-02-04T14:40:10;4.30;77.90
4406;DHT22;2216;53.806;11.598;2023-02-04T14:42:37;4.20;77.90
4406;DHT22;2216;53.806;11.598;2023-02-04T14:45:04;4.20;77.10
4406;DHT22;2216;53.806;11.598;2023-02-04T14:47:31;4.10;77.30
4406;DHT22;2216;53.806;11.598;2023-02-04T14:49:57;4.10;77.60
4406;DHT22;2216;53.806;11.598;2023-02-04T14:52:22;4.00;77.50
4406;DHT22;2216;53.806;11.598;2023-02-04T14:54:48;4.00;77.80
4406;DHT22;2216;53.806;11.598;2023-02-04T14:57:14;4.00;76.90
4406;DHT22;2216;53.806;11.598;2023-02-04T14:59:40;3.90;77.20
4406;DHT22;2216;53.806;11.598;2023-02-04T15:02:06;3.80;77.60
4406;DHT22;2216;53.806;11.598;2023-02-04T15:04:32;3.80;77.40
4406;DHT22;2216;53.806;11.598;2023-02-04T15:06:57;3.70;76.70
4406;DHT22;2216;53.806;11.598;2023-02-04T15:09:24;3.70;76.80
4406;DHT22;2216;53.806;11.598;2023-02-04T15:11:50;3.70;77.40
4406;DHT22;2216;53.806;11.598;2023-02-04T15:14:16;3.60;77.50
4406;DHT22;2216;53.806;11.598;2023-02-04T15:16:42;3.60;77.10
4406;DHT22;2216;53.806;11.598;2023-02-04T15:19:12;3.50;77.10
4406;DHT22;2216;53.806;11.598;2023-02-04T15:21:41;3.50;77.20
4406;DHT22;2216;53.806;11.598;2023-02-04T15:24:07;3.40;77.20
4406;DHT22;2216;53.806;11.598;2023-02-04T15:26:32;3.30;77.20
4406;DHT22;2216;53.806;11.598;2023-02-04T15:28:58;3.30;77.60
4406;DHT22;2216;53.806;11.598;2023-02-04T15:31:24;3.20;77.30
4406;DHT22;2216;53.806;11.598;2023-02-04T15:33:51;3.20;76.90
4406;DHT22;2216;53.806;11.598;2023-02-04T15:36:17;3.30;77.40
4406;DHT22;2216;53.806;11.598;2023-02-04T15:38:43;3.10;77.50
4406;DHT22;2216;53.806;11.598;2023-02-04T15:41:10;3.00;77.50
4406;DHT22;2216;53.806;11.598;2023-02-04T15:43:35;2.90;77.60
4406;DHT22;2216;53.806;11.598;2023-02-04T15:46:01;2.90;77.70
4406;DHT22;2216;53.806;11.598;2023-02-04T15:48:27;2.80;77.70
4406;DHT22;2216;53.806;11.598;2023-02-04T15:50:53;2.70;77.70
4406;DHT22;2216;53.806;11.598;2023-02-04T15:53:19;2.70;77.50
4406;DHT22;2216;53.806;11.598;2023-02-04T15:55:45;2.60;77.60
4406;DHT22;2216;53.806;11.598;2023-02-04T15:58:11;2.60;77.60
4406;DHT22;2216;53.806;11.598;2023-02-04T16:00:36;2.50;77.80
4406;DHT22;2216;53.806;11.598;2023-02-04T16:03:02;2.40;77.80
4406;DHT22;2216;53.806;11.598;2023-02-04T16:05:29;2.40;77.70
4406;DHT22;2216;53.806;11.598;2023-02-04T16:07:55;2.30;77.60
4406;DHT22;2216;53.806;11.598;2023-02-04T16:10:20;2.20;77.60
4406;DHT22;2216;53.806;11.598;2023-02-04T16:12:46;2.20;77.70
4406;DHT22;2216;53.806;11.598;2023-02-04T16:15:13;2.10;77.60
4406;DHT22;2216;53.806;11.598;2023-02-04T16:17:39;2.00;77.70